Аэропорт: Гянджа. Гянджа

ICAO: UBBG

METAR:
2022-06-26 10:00:00
UBBG 261000Z 31010KT 280V340 9999 FEW050CB BKN100 24/17 Q1005 NOSIG
METAR:
2022-06-26 05:00:00
TAF UBBG 260500Z 2606/2706 VRB04KT 8000 SCT012 SCT030CB BKN080 TX25/2612Z TN19/2702Z TEMPO 2606/2609 32008KT -SHRA BECMG 2612/2614 30014KT PROB40 TEMPO 2614/2621 VRB14KT -TSRA